createdAt,value
2023-03-22T00:01:28.766Z,98199.03
2023-03-22T00:03:57.000Z,98193.59
2023-03-22T00:06:25.635Z,98187.84
2023-03-22T00:08:55.130Z,98185.34
2023-03-22T00:11:25.971Z,98181.06
2023-03-22T00:13:55.016Z,98185.28
2023-03-22T00:16:23.593Z,98189.34
2023-03-22T00:18:51.830Z,98175.06
2023-03-22T00:21:20.027Z,98174.50
2023-03-22T00:23:48.169Z,98173.00
2023-03-22T00:26:16.446Z,98176.00
2023-03-22T00:28:46.677Z,98177.50
2023-03-22T00:31:15.984Z,98173.41
2023-03-22T00:33:44.168Z,98175.44
2023-03-22T00:36:13.886Z,98172.53
2023-03-22T00:38:43.968Z,98168.31
2023-03-22T00:41:14.083Z,98162.78
2023-03-22T00:43:42.541Z,98158.25
2023-03-22T00:46:13.518Z,98163.50
2023-03-22T00:48:42.035Z,98166.75
2023-03-22T00:51:12.775Z,98164.91
2023-03-22T00:53:43.522Z,98154.34
2023-03-22T00:56:15.890Z,98158.66
2023-03-22T00:58:57.060Z,98142.75
2023-03-22T01:01:26.922Z,98154.63
2023-03-22T01:03:56.017Z,98155.56
2023-03-22T01:06:24.132Z,98149.72
2023-03-22T01:08:55.257Z,98153.41
2023-03-22T01:11:23.497Z,98152.38
2023-03-22T01:13:57.663Z,98151.25
2023-03-22T01:16:27.760Z,98151.25
2023-03-22T01:18:55.897Z,98143.97
2023-03-22T01:21:24.032Z,98140.66
2023-03-22T01:23:52.146Z,98143.91
2023-03-22T01:26:20.287Z,98139.13
2023-03-22T01:28:48.359Z,98138.38
2023-03-22T01:31:16.513Z,98143.41
2023-03-22T01:33:46.125Z,98140.19
2023-03-22T01:36:14.244Z,98133.13
2023-03-22T01:38:42.371Z,98130.31
2023-03-22T01:41:10.553Z,98127.63
2023-03-22T01:43:41.901Z,98124.66
2023-03-22T01:46:10.321Z,98119.63
2023-03-22T01:48:46.271Z,98114.94
2023-03-22T01:51:19.241Z,98108.41
2023-03-22T01:54:25.722Z,98106.31
2023-03-22T01:56:54.175Z,98103.06
2023-03-22T01:59:32.676Z,98105.38
2023-03-22T02:02:19.244Z,98097.53
2023-03-22T02:04:58.193Z,98092.78
2023-03-22T02:07:31.918Z,98081.13
2023-03-22T02:10:02.474Z,98079.91
2023-03-22T02:12:53.596Z,98075.84
2023-03-22T02:15:42.876Z,98081.91
2023-03-22T02:18:44.958Z,98078.06
2023-03-22T02:21:46.020Z,98079.97
2023-03-22T02:24:48.301Z,98079.78
2023-03-22T02:27:48.065Z,98069.88
2023-03-22T02:30:45.912Z,98069.13
2023-03-22T02:33:41.559Z,98067.41
2023-03-22T02:36:31.016Z,98060.66
2023-03-22T02:39:15.558Z,98056.41
2023-03-22T02:42:05.000Z,98052.09
2023-03-22T02:44:42.246Z,98052.09
2023-03-22T02:47:22.433Z,98054.78
2023-03-22T02:49:57.500Z,98054.28
2023-03-22T02:52:31.900Z,98054.19
2023-03-22T02:55:08.985Z,98049.44
2023-03-22T02:57:42.006Z,98051.16
2023-03-22T03:00:14.240Z,98055.44
2023-03-22T03:02:45.430Z,98054.53
2023-03-22T03:05:16.234Z,98063.19
2023-03-22T03:07:47.802Z,98057.13
2023-03-22T03:10:19.728Z,98056.09
2023-03-22T03:12:48.050Z,98056.44
2023-03-22T03:15:18.635Z,98052.34
2023-03-22T03:17:58.685Z,98059.47
2023-03-22T03:20:39.007Z,98065.25
2023-03-22T03:23:17.787Z,98067.03
2023-03-22T03:25:59.070Z,98066.47
2023-03-22T03:28:38.470Z,98067.81
2023-03-22T03:31:19.797Z,98066.78
2023-03-22T03:33:56.288Z,98067.78
2023-03-22T03:36:27.420Z,98074.59
2023-03-22T03:38:58.010Z,98076.78
2023-03-22T03:41:31.334Z,98074.50
2023-03-22T03:44:00.654Z,98068.06
2023-03-22T03:46:29.529Z,98074.41
2023-03-22T03:48:59.366Z,98075.84
2023-03-22T03:51:28.761Z,98070.84
2023-03-22T03:53:56.867Z,98071.31
2023-03-22T03:56:25.184Z,98074.34
2023-03-22T03:58:55.769Z,98074.88
2023-03-22T04:01:24.251Z,98078.44
2023-03-22T04:04:15.342Z,98076.38
2023-03-22T04:06:56.838Z,98082.44
2023-03-22T04:09:27.512Z,98086.38
2023-03-22T04:12:00.823Z,98080.66
2023-03-22T04:14:30.473Z,98082.44
2023-03-22T04:17:02.596Z,98079.41
2023-03-22T04:19:32.623Z,98081.00
2023-03-22T04:22:01.183Z,98081.41
2023-03-22T04:24:29.446Z,98077.50
2023-03-22T04:26:57.572Z,98085.94
2023-03-22T04:29:32.360Z,98079.78
2023-03-22T04:32:16.622Z,98081.13
2023-03-22T04:34:44.934Z,98080.25
2023-03-22T04:37:15.657Z,98082.78
2023-03-22T04:39:50.617Z,98086.69
2023-03-22T04:42:32.437Z,98092.59
2023-03-22T04:45:29.318Z,98093.19
2023-03-22T04:48:01.874Z,98098.22
2023-03-22T04:50:32.365Z,98092.94
2023-03-22T04:53:04.085Z,98100.84
2023-03-22T04:55:34.224Z,98101.41
2023-03-22T04:58:03.421Z,98098.75
2023-03-22T05:00:32.914Z,98097.63
2023-03-22T05:03:04.172Z,98096.59
2023-03-22T05:05:41.352Z,98094.13
2023-03-22T05:08:09.725Z,98095.16
2023-03-22T05:10:41.414Z,98101.13
2023-03-22T05:13:10.055Z,98104.00
2023-03-22T05:15:44.418Z,98094.34
2023-03-22T05:18:15.547Z,98100.44
2023-03-22T05:20:45.666Z,98101.91
2023-03-22T05:23:19.502Z,98107.69
2023-03-22T05:25:52.333Z,98111.50
2023-03-22T05:28:22.513Z,98114.78
2023-03-22T05:31:15.584Z,98108.00
2023-03-22T05:33:50.531Z,98114.88
2023-03-22T05:36:23.001Z,98114.28
2023-03-22T05:39:10.879Z,98117.09
2023-03-22T05:41:39.161Z,98113.44
2023-03-22T05:44:07.529Z,98117.97
2023-03-22T05:46:39.791Z,98107.53
2023-03-22T05:49:31.148Z,98103.69
2023-03-22T05:51:59.359Z,98102.75
2023-03-22T05:54:38.435Z,98101.63
2023-03-22T05:57:07.427Z,98109.28
2023-03-22T05:59:35.517Z,98097.25
2023-03-22T06:02:05.711Z,98116.25
2023-03-22T06:04:33.793Z,98108.88
2023-03-22T06:07:06.435Z,98110.06
2023-03-22T06:09:54.523Z,98116.88
2023-03-22T06:12:27.223Z,98112.31
2023-03-22T06:15:13.041Z,98108.66
2023-03-22T06:17:58.822Z,98109.91
2023-03-22T06:20:29.699Z,98109.56
2023-03-22T06:23:03.416Z,98121.34
2023-03-22T06:25:31.624Z,98115.19
2023-03-22T06:28:00.664Z,98119.13
2023-03-22T06:30:30.496Z,98115.16
2023-03-22T06:33:14.727Z,98114.06
2023-03-22T06:35:46.351Z,98119.91
2023-03-22T06:38:20.841Z,98115.38
2023-03-22T06:40:49.085Z,98116.84
2023-03-22T06:43:17.300Z,98116.44
2023-03-22T06:45:48.806Z,98112.44
2023-03-22T06:48:23.733Z,98117.81
2023-03-22T06:51:06.503Z,98110.88
2023-03-22T06:53:36.512Z,98108.31
2023-03-22T06:56:06.083Z,98110.75
2023-03-22T06:58:45.049Z,98107.53
2023-03-22T07:01:13.136Z,98114.94
2023-03-22T07:03:42.817Z,98114.34
2023-03-22T07:06:14.912Z,98121.22
2023-03-22T07:08:46.952Z,98121.09
2023-03-22T07:11:19.060Z,98119.53
2023-03-22T07:13:51.809Z,98111.88
2023-03-22T07:16:22.920Z,98114.13
2023-03-22T07:18:56.013Z,98116.84
2023-03-22T07:21:24.692Z,98120.75
2023-03-22T07:23:58.289Z,98119.72
2023-03-22T07:26:30.632Z,98125.09
2023-03-22T07:29:00.107Z,98114.50
2023-03-22T07:31:31.687Z,98117.34
2023-03-22T07:34:06.948Z,98115.88
2023-03-22T07:36:58.061Z,98111.47
2023-03-22T07:39:28.974Z,98108.06
2023-03-22T07:41:57.550Z,98092.69
2023-03-22T07:44:25.629Z,98099.00
2023-03-22T07:47:12.758Z,98090.75
2023-03-22T07:49:49.658Z,98098.13
2023-03-22T07:52:21.875Z,98106.81
2023-03-22T07:54:50.269Z,98115.19
2023-03-22T07:57:18.814Z,98112.19
2023-03-22T07:59:53.075Z,98109.09
2023-03-22T08:02:21.440Z,98104.34
2023-03-22T08:04:56.507Z,98096.88
2023-03-22T08:07:42.410Z,98100.09
2023-03-22T08:10:12.820Z,98102.31
2023-03-22T08:12:41.379Z,98097.16
2023-03-22T08:15:16.687Z,98092.16
2023-03-22T08:17:45.477Z,98093.41
2023-03-22T08:20:21.197Z,98086.59
2023-03-22T08:22:55.553Z,98088.38
2023-03-22T08:25:49.719Z,98094.44
2023-03-22T08:28:17.895Z,98090.41
2023-03-22T08:30:48.183Z,98096.47
2023-03-22T08:33:17.149Z,98093.19
2023-03-22T08:35:48.107Z,98095.97
2023-03-22T08:38:16.257Z,98082.09
2023-03-22T08:40:48.715Z,98085.38
2023-03-22T08:43:20.764Z,98082.84
2023-03-22T08:45:49.026Z,98082.47
2023-03-22T08:48:20.842Z,98085.53
2023-03-22T08:51:06.578Z,98085.03
2023-03-22T08:53:49.740Z,98085.72
2023-03-22T08:56:41.892Z,98090.94
2023-03-22T08:59:20.504Z,98091.25
2023-03-22T09:01:59.055Z,98091.97
2023-03-22T09:04:27.442Z,98084.19
2023-03-22T09:06:57.614Z,98086.09
2023-03-22T09:09:25.744Z,98082.44
2023-03-22T09:11:56.312Z,98088.75
2023-03-22T09:14:24.802Z,98088.56
2023-03-22T09:16:54.459Z,98087.69
2023-03-22T09:19:22.707Z,98079.28
2023-03-22T09:21:51.089Z,98083.06
2023-03-22T09:24:31.536Z,98083.56
2023-03-22T09:27:03.432Z,98072.09
2023-03-22T09:29:31.931Z,98071.28
2023-03-22T09:32:03.477Z,98057.00
2023-03-22T09:34:35.004Z,98047.81
2023-03-22T09:37:04.941Z,98045.63
2023-03-22T09:39:44.838Z,98052.41
2023-03-22T09:42:25.878Z,98048.06
2023-03-22T09:44:56.157Z,98047.53
2023-03-22T09:47:44.164Z,98049.66
2023-03-22T09:50:16.512Z,98040.53
2023-03-22T09:52:45.160Z,98039.34
2023-03-22T09:55:20.744Z,98035.44
2023-03-22T09:57:56.283Z,98033.25
2023-03-22T10:00:34.599Z,98027.81
2023-03-22T10:03:14.007Z,98031.50
2023-03-22T10:05:48.289Z,98025.44
2023-03-22T10:08:31.171Z,98025.59
2023-03-22T10:11:01.540Z,98020.66
2023-03-22T10:13:37.750Z,98021.94
2023-03-22T10:16:11.772Z,98017.84
2023-03-22T10:18:43.827Z,98020.00
2023-03-22T10:21:14.484Z,98012.16
2023-03-22T10:23:45.890Z,98015.13
2023-03-22T10:26:23.980Z,98007.00
2023-03-22T10:29:03.506Z,98017.03
2023-03-22T10:31:32.859Z,98016.88
2023-03-22T10:34:08.366Z,98011.31
2023-03-22T10:36:42.476Z,98008.72
2023-03-22T10:39:17.304Z,98003.44
2023-03-22T10:41:48.633Z,97998.53
2023-03-22T10:44:20.534Z,98005.97
2023-03-22T10:46:52.054Z,98005.63
2023-03-22T10:49:26.180Z,98002.47
2023-03-22T10:51:59.910Z,97991.94
2023-03-22T10:54:28.161Z,97990.34
2023-03-22T10:56:57.637Z,97992.53
2023-03-22T10:59:48.392Z,97990.41
2023-03-22T11:02:22.251Z,97985.94
2023-03-22T11:04:52.646Z,97973.84
2023-03-22T11:07:39.423Z,97989.13
2023-03-22T11:10:21.856Z,97981.00
2023-03-22T11:12:54.418Z,97977.19
2023-03-22T11:15:29.948Z,97979.88
2023-03-22T11:18:06.557Z,97967.50
2023-03-22T11:20:36.542Z,97979.22
2023-03-22T11:23:07.027Z,97957.81
2023-03-22T11:25:37.668Z,97961.19
2023-03-22T11:28:16.637Z,97957.88
2023-03-22T11:31:00.462Z,97960.81
2023-03-22T11:33:28.858Z,97960.41
2023-03-22T11:35:58.227Z,97964.22
2023-03-22T11:38:30.622Z,97956.03
2023-03-22T11:41:02.687Z,97958.16
2023-03-22T11:43:37.005Z,97950.75
2023-03-22T11:46:06.394Z,97947.44
2023-03-22T11:48:36.702Z,97948.25
2023-03-22T11:51:09.771Z,97945.69
2023-03-22T11:53:40.931Z,97950.72
2023-03-22T11:56:12.086Z,97935.03
2023-03-22T11:58:56.387Z,97935.28
2023-03-22T12:01:34.532Z,97933.22
2023-03-22T12:04:06.440Z,97931.69
2023-03-22T12:06:39.226Z,97937.38
2023-03-22T12:09:22.898Z,97933.69
2023-03-22T12:11:54.313Z,97925.38
2023-03-22T12:14:29.273Z,97926.78
2023-03-22T12:16:59.748Z,97928.97
2023-03-22T12:19:43.546Z,97927.69
2023-03-22T12:22:14.393Z,97926.03
2023-03-22T12:24:43.273Z,97914.72
2023-03-22T12:27:18.680Z,97906.94
2023-03-22T12:29:54.803Z,97905.19
2023-03-22T12:32:27.667Z,97901.19
2023-03-22T12:35:16.044Z,97900.41
2023-03-22T12:37:49.697Z,97901.50
2023-03-22T12:40:24.451Z,97897.78
2023-03-22T12:43:02.294Z,97898.19
2023-03-22T12:45:37.165Z,97895.03
2023-03-22T12:48:11.440Z,97890.81
2023-03-22T12:50:44.479Z,97885.41
2023-03-22T12:53:16.475Z,97884.84
2023-03-22T12:55:46.241Z,97872.47
2023-03-22T12:58:18.178Z,97886.03
2023-03-22T13:00:51.004Z,97885.16
2023-03-22T13:03:28.975Z,97890.28
2023-03-22T13:06:07.717Z,97884.03
2023-03-22T13:09:13.215Z,97879.94
2023-03-22T13:11:41.338Z,97884.16
2023-03-22T13:14:12.986Z,97867.38
2023-03-22T13:16:52.596Z,97864.22
2023-03-22T13:19:38.037Z,97863.78
2023-03-22T13:22:21.130Z,97865.81
2023-03-22T13:25:29.717Z,97865.41
2023-03-22T13:28:00.091Z,97863.88
2023-03-22T13:30:33.357Z,97860.69
2023-03-22T13:33:14.321Z,97841.28
2023-03-22T13:35:46.580Z,97840.88
2023-03-22T13:38:22.308Z,97856.75
2023-03-22T13:41:00.789Z,97837.91
2023-03-22T13:43:32.757Z,97836.09
2023-03-22T13:46:29.435Z,97834.94
2023-03-22T13:49:26.534Z,97838.75
2023-03-22T13:51:56.916Z,97844.13
2023-03-22T13:54:28.732Z,97835.28
2023-03-22T13:57:00.909Z,97829.19
2023-03-22T13:59:33.890Z,97833.88
2023-03-22T14:02:05.921Z,97828.44
2023-03-22T14:04:42.686Z,97818.13
2023-03-22T14:07:24.198Z,97816.66
2023-03-22T14:09:55.768Z,97806.63
2023-03-22T14:12:29.742Z,97803.47
2023-03-22T14:15:02.601Z,97803.22
2023-03-22T14:17:36.276Z,97806.00
2023-03-22T14:20:10.701Z,97799.28
